createdAt,value
2023-04-30T00:02:20.454Z,5.20
2023-04-30T00:04:47.558Z,7.00
2023-04-30T00:07:14.436Z,8.10
2023-04-30T00:09:41.283Z,8.65
2023-04-30T00:12:08.122Z,8.88
2023-04-30T00:14:34.945Z,6.55
2023-04-30T00:17:01.788Z,9.43
2023-04-30T00:19:28.527Z,7.65
2023-04-30T00:21:55.349Z,8.73
2023-04-30T00:24:22.345Z,5.43
2023-04-30T00:26:49.132Z,6.93
2023-04-30T00:29:15.814Z,9.35
2023-04-30T00:31:42.817Z,10.45
2023-04-30T00:34:09.693Z,8.95
2023-04-30T00:36:36.483Z,8.68
2023-04-30T00:39:03.413Z,9.45
2023-04-30T00:41:31.318Z,8.02
2023-04-30T00:43:58.118Z,9.77
2023-04-30T00:46:24.887Z,7.85
2023-04-30T00:48:51.894Z,7.65
2023-04-30T00:51:19.186Z,7.28
2023-04-30T00:53:46.585Z,7.18
2023-04-30T00:56:16.490Z,7.95
2023-04-30T00:58:43.441Z,9.02
2023-04-30T01:01:10.720Z,9.88
2023-04-30T01:03:37.674Z,9.88
2023-04-30T01:06:04.608Z,5.57
2023-04-30T01:08:32.350Z,7.60
2023-04-30T01:11:10.520Z,7.60
2023-04-30T01:16:30.448Z,6.30
2023-04-30T01:19:01.956Z,7.05
2023-04-30T01:21:31.039Z,5.63
2023-04-30T01:24:07.055Z,10.10
2023-04-30T01:26:55.972Z,7.13
2023-04-30T01:29:25.109Z,10.38
2023-04-30T01:31:52.006Z,7.70
2023-04-30T01:34:18.872Z,5.28
2023-04-30T01:36:48.646Z,4.80
2023-04-30T01:39:35.083Z,4.57
2023-04-30T01:42:17.732Z,9.00
2023-04-30T01:45:18.478Z,7.55
2023-04-30T01:47:57.622Z,7.18
2023-04-30T01:50:33.306Z,7.95
2023-04-30T01:53:02.203Z,8.85
2023-04-30T01:55:45.898Z,4.90
2023-04-30T01:58:14.821Z,5.88
2023-04-30T02:00:41.930Z,6.10
2023-04-30T02:03:08.882Z,5.45
2023-04-30T02:05:35.780Z,6.53
2023-04-30T02:08:03.241Z,5.80
2023-04-30T02:10:30.709Z,4.88
2023-04-30T02:12:57.619Z,5.80
2023-04-30T02:15:24.571Z,6.00
2023-04-30T02:17:56.199Z,7.22
2023-04-30T02:20:23.006Z,7.88
2023-04-30T02:22:50.981Z,5.72
2023-04-30T02:25:17.749Z,8.15
2023-04-30T02:27:44.480Z,11.13
2023-04-30T02:30:11.436Z,7.07
2023-04-30T02:32:38.297Z,7.00
2023-04-30T02:35:05.702Z,12.48
2023-04-30T02:37:32.413Z,6.07
2023-04-30T02:39:59.663Z,7.13
2023-04-30T02:42:26.493Z,8.38
2023-04-30T02:44:53.344Z,8.70
2023-04-30T02:47:20.192Z,7.40
2023-04-30T02:49:47.138Z,7.03
2023-04-30T02:52:13.960Z,5.90
2023-04-30T02:54:40.790Z,9.75
2023-04-30T02:57:07.559Z,6.63
2023-04-30T02:59:34.386Z,7.68
2023-04-30T03:02:01.173Z,5.68
2023-04-30T03:04:27.972Z,8.50
2023-04-30T03:06:54.715Z,8.13
2023-04-30T03:09:21.552Z,6.30
2023-04-30T03:11:48.532Z,6.13
2023-04-30T03:14:15.635Z,11.00
2023-04-30T03:16:42.469Z,4.82
2023-04-30T03:19:09.385Z,9.73
2023-04-30T03:21:36.117Z,5.28
2023-04-30T03:24:03.028Z,5.28
2023-04-30T03:26:29.684Z,8.98
2023-04-30T03:28:56.491Z,5.40
2023-04-30T03:31:23.223Z,6.75
2023-04-30T03:33:50.024Z,7.65
2023-04-30T03:36:16.946Z,6.93
2023-04-30T03:38:43.744Z,5.60
2023-04-30T03:41:10.966Z,5.18
2023-04-30T03:43:38.097Z,8.52
2023-04-30T03:46:05.090Z,6.10
2023-04-30T03:48:32.204Z,7.28
2023-04-30T03:50:58.995Z,11.82
2023-04-30T03:53:28.651Z,5.85
2023-04-30T03:55:56.026Z,9.15
2023-04-30T03:58:23.050Z,11.50
2023-04-30T04:00:50.329Z,7.93
2023-04-30T04:03:17.458Z,5.68
2023-04-30T04:05:44.557Z,6.28
2023-04-30T04:08:11.262Z,4.07
2023-04-30T04:10:39.283Z,9.00
2023-04-30T04:13:06.738Z,5.50
2023-04-30T04:15:34.462Z,6.35
2023-04-30T04:18:01.271Z,9.38
2023-04-30T04:20:30.049Z,7.50
2023-04-30T04:22:57.329Z,7.88
2023-04-30T04:25:27.646Z,5.85
2023-04-30T04:27:54.396Z,7.78
2023-04-30T04:30:21.120Z,6.53
2023-04-30T04:32:51.767Z,5.63
2023-04-30T04:35:19.379Z,6.38
2023-04-30T04:37:46.240Z,8.40
2023-04-30T04:40:13.775Z,7.43
2023-04-30T04:42:40.645Z,5.47
2023-04-30T04:45:08.409Z,7.57
2023-04-30T04:47:35.673Z,6.28
2023-04-30T04:50:02.677Z,7.18
2023-04-30T04:52:29.422Z,8.05
2023-04-30T04:54:56.251Z,9.35
2023-04-30T04:57:23.045Z,5.85
2023-04-30T04:59:49.821Z,8.73
2023-04-30T05:02:16.719Z,5.35
2023-04-30T05:04:43.485Z,7.28
2023-04-30T05:07:10.189Z,7.90
2023-04-30T05:09:36.968Z,6.00
2023-04-30T05:12:04.260Z,7.57
2023-04-30T05:14:30.995Z,4.15
2023-04-30T05:16:57.802Z,5.70
2023-04-30T05:19:24.721Z,8.25
2023-04-30T05:21:51.454Z,4.93
2023-04-30T05:24:18.173Z,5.20
2023-04-30T05:26:44.947Z,4.63
2023-04-30T05:29:12.343Z,7.68
2023-04-30T05:31:39.614Z,4.20
2023-04-30T05:34:06.338Z,5.25
2023-04-30T05:36:33.191Z,8.45
2023-04-30T05:38:59.968Z,6.32
2023-04-30T05:41:26.797Z,4.18
2023-04-30T05:43:53.582Z,5.95
2023-04-30T05:46:20.688Z,3.63
2023-04-30T05:48:48.319Z,4.95
2023-04-30T05:51:15.189Z,4.00
2023-04-30T05:53:41.968Z,5.47
2023-04-30T05:56:08.991Z,7.68
2023-04-30T05:58:35.771Z,8.32
2023-04-30T06:01:02.736Z,6.60
2023-04-30T06:03:29.487Z,6.45
2023-04-30T06:05:56.286Z,8.95
2023-04-30T06:08:23.100Z,7.07
2023-04-30T06:10:50.977Z,5.25
2023-04-30T06:13:17.867Z,6.45
2023-04-30T06:15:44.953Z,4.03
2023-04-30T06:18:14.254Z,9.75
2023-04-30T06:20:41.185Z,4.78
2023-04-30T06:23:08.977Z,6.57
2023-04-30T06:25:35.997Z,4.30
2023-04-30T06:28:02.746Z,6.45
2023-04-30T06:30:31.744Z,8.00
2023-04-30T06:32:58.616Z,7.10
2023-04-30T06:35:25.433Z,8.15
2023-04-30T06:37:52.147Z,4.65
2023-04-30T06:40:19.171Z,8.05
2023-04-30T06:42:47.498Z,4.97
2023-04-30T06:45:15.307Z,6.13
2023-04-30T06:47:42.923Z,5.47
2023-04-30T06:50:11.456Z,5.53
2023-04-30T06:52:38.465Z,7.57
2023-04-30T06:55:05.763Z,5.28
2023-04-30T06:57:32.561Z,7.82
2023-04-30T06:59:59.946Z,5.38
2023-04-30T07:02:28.030Z,5.95
2023-04-30T07:04:55.169Z,4.55
2023-04-30T07:07:23.131Z,5.30
2023-04-30T07:09:51.809Z,8.30
2023-04-30T07:12:18.807Z,7.47
2023-04-30T07:14:45.620Z,6.38
2023-04-30T07:17:12.851Z,5.97
2023-04-30T07:19:39.746Z,8.55
2023-04-30T07:22:06.611Z,4.93
2023-04-30T07:24:33.451Z,4.38
2023-04-30T07:27:03.027Z,6.72
2023-04-30T07:29:30.379Z,6.68
2023-04-30T07:31:57.352Z,6.80
2023-04-30T07:34:25.239Z,6.28
2023-04-30T07:36:52.258Z,6.70
2023-04-30T07:39:19.191Z,4.60
2023-04-30T07:41:46.083Z,7.97
2023-04-30T07:44:12.898Z,4.65
2023-04-30T07:46:39.825Z,4.63
2023-04-30T07:49:06.704Z,4.38
2023-04-30T07:51:34.041Z,5.82
2023-04-30T07:54:00.996Z,4.63
2023-04-30T07:56:27.775Z,3.75
2023-04-30T07:58:54.602Z,4.18
2023-04-30T08:01:21.635Z,3.63
2023-04-30T08:03:48.903Z,5.22
2023-04-30T08:06:16.282Z,5.03
2023-04-30T08:08:43.214Z,3.40
2023-04-30T08:11:10.796Z,5.85
2023-04-30T08:13:37.632Z,3.85
2023-04-30T08:16:04.523Z,6.28
2023-04-30T08:18:32.344Z,5.75
2023-04-30T08:21:00.726Z,4.68
2023-04-30T08:23:27.969Z,5.95
2023-04-30T08:25:54.849Z,7.68
2023-04-30T08:28:21.864Z,5.63
2023-04-30T08:30:48.729Z,8.20
2023-04-30T08:33:15.535Z,4.93
2023-04-30T08:35:42.441Z,5.78
2023-04-30T08:38:10.225Z,5.38
2023-04-30T08:43:08.780Z,5.03
2023-04-30T08:45:39.580Z,5.05
2023-04-30T08:48:11.135Z,6.00
2023-04-30T08:50:38.035Z,6.88
2023-04-30T08:53:04.920Z,4.47
2023-04-30T08:55:34.586Z,4.05
2023-04-30T08:58:01.523Z,4.28
2023-04-30T09:00:28.426Z,4.80
2023-04-30T09:02:55.689Z,5.07
2023-04-30T09:05:22.480Z,3.85
2023-04-30T09:08:02.558Z,7.05
2023-04-30T09:10:34.822Z,4.00
2023-04-30T09:13:06.963Z,5.30
2023-04-30T09:15:36.000Z,8.20
2023-04-30T09:18:18.258Z,5.25
2023-04-30T09:20:56.078Z,4.07
2023-04-30T09:23:22.934Z,3.83
2023-04-30T09:25:49.742Z,3.60
2023-04-30T09:28:16.836Z,4.55
2023-04-30T09:30:43.634Z,5.70
2023-04-30T09:33:12.192Z,4.38
2023-04-30T09:35:41.881Z,3.80
2023-04-30T09:38:27.713Z,3.95
2023-04-30T09:40:54.784Z,4.22
2023-04-30T09:43:22.241Z,5.03
2023-04-30T09:45:52.588Z,5.55
2023-04-30T09:48:22.836Z,6.35
2023-04-30T09:50:51.132Z,4.38
2023-04-30T09:53:19.315Z,4.10
2023-04-30T09:56:12.212Z,4.20
2023-04-30T09:58:39.676Z,3.70
2023-04-30T10:01:11.394Z,3.22
2023-04-30T10:03:43.387Z,2.92
2023-04-30T10:06:13.892Z,6.95
2023-04-30T10:08:42.634Z,2.55
2023-04-30T10:11:16.496Z,3.00
2023-04-30T10:14:01.889Z,3.22
2023-04-30T10:16:51.628Z,4.18
2023-04-30T10:19:32.041Z,3.13
2023-04-30T10:22:01.235Z,3.25
2023-04-30T10:24:28.199Z,3.90
2023-04-30T10:26:56.508Z,4.35
2023-04-30T10:29:23.317Z,3.60
2023-04-30T10:31:52.790Z,4.90
2023-04-30T10:35:02.066Z,2.15
2023-04-30T10:37:38.050Z,4.38
2023-04-30T10:40:05.745Z,2.67
2023-04-30T10:42:35.839Z,3.95
2023-04-30T10:45:06.287Z,4.55
2023-04-30T10:47:33.198Z,2.95
2023-04-30T10:50:05.590Z,2.65
2023-04-30T10:52:32.582Z,4.00
2023-04-30T10:54:59.496Z,4.50
2023-04-30T10:57:29.685Z,3.65
2023-04-30T11:00:09.444Z,4.03
2023-04-30T11:02:45.164Z,3.13
2023-04-30T11:05:14.425Z,4.18
2023-04-30T11:07:58.859Z,4.80
2023-04-30T11:10:28.550Z,4.38
2023-04-30T11:12:55.887Z,4.32
2023-04-30T11:15:27.905Z,6.65
2023-04-30T11:17:59.500Z,4.28
2023-04-30T11:20:26.768Z,3.40
2023-04-30T11:23:40.135Z,4.60
2023-04-30T11:26:09.218Z,4.10
2023-04-30T11:28:38.004Z,4.10
2023-04-30T11:31:05.579Z,3.22
2023-04-30T11:33:33.801Z,3.60
2023-04-30T11:36:01.907Z,4.25
2023-04-30T11:38:36.353Z,3.55
2023-04-30T11:41:04.106Z,2.70
2023-04-30T11:43:32.851Z,4.82
2023-04-30T11:46:13.973Z,4.63
2023-04-30T11:48:45.917Z,3.80
2023-04-30T11:51:19.589Z,2.78
2023-04-30T11:53:50.990Z,3.72
2023-04-30T11:56:20.693Z,2.55
2023-04-30T11:58:48.635Z,3.25
2023-04-30T12:01:15.976Z,4.78
2023-04-30T12:03:47.826Z,4.72
2023-04-30T12:06:25.967Z,3.50
2023-04-30T12:08:57.217Z,6.45
2023-04-30T12:11:26.477Z,3.05
2023-04-30T12:14:03.478Z,3.72
2023-04-30T12:16:49.337Z,3.10
2023-04-30T12:19:21.846Z,4.28
2023-04-30T12:21:49.703Z,4.68
2023-04-30T12:24:18.737Z,4.13
2023-04-30T12:26:46.252Z,4.75
2023-04-30T12:29:16.346Z,5.93
2023-04-30T12:31:43.857Z,3.30
2023-04-30T12:34:13.339Z,3.45
2023-04-30T12:36:44.461Z,4.20
2023-04-30T12:41:44.367Z,2.95
2023-04-30T12:44:25.074Z,3.45
2023-04-30T12:46:56.303Z,5.40
2023-04-30T12:49:29.856Z,5.00
2023-04-30T12:52:11.425Z,4.72
2023-04-30T12:54:39.498Z,3.63
2023-04-30T12:57:08.221Z,3.97
2023-04-30T12:59:55.619Z,6.40
2023-04-30T13:02:25.478Z,3.10
2023-04-30T13:04:53.666Z,3.90
2023-04-30T13:07:21.038Z,2.90
2023-04-30T13:09:47.834Z,4.32
2023-04-30T13:12:15.108Z,4.93
2023-04-30T13:14:42.085Z,3.42
2023-04-30T13:17:10.937Z,3.83
2023-04-30T13:19:37.817Z,4.53
2023-04-30T13:22:04.792Z,3.88
2023-04-30T13:24:31.711Z,2.92
2023-04-30T13:26:59.309Z,3.00
2023-04-30T13:29:26.767Z,3.22
2023-04-30T13:31:53.606Z,2.42
2023-04-30T13:34:20.613Z,2.90
2023-04-30T13:36:47.500Z,3.80
2023-04-30T13:39:14.487Z,3.03
2023-04-30T13:41:41.348Z,4.65
2023-04-30T13:44:08.152Z,4.00
2023-04-30T13:46:35.007Z,3.00
2023-04-30T13:49:01.833Z,3.78
2023-04-30T13:51:28.798Z,3.40
2023-04-30T13:53:55.697Z,4.45
2023-04-30T13:56:22.464Z,2.72
2023-04-30T13:58:49.284Z,4.68
2023-04-30T14:01:18.334Z,3.60
2023-04-30T14:03:46.611Z,3.22
2023-04-30T14:06:13.664Z,4.63
2023-04-30T14:08:40.490Z,4.93
2023-04-30T14:11:07.410Z,4.53
2023-04-30T14:13:34.154Z,3.97
2023-04-30T14:16:01.046Z,3.47
2023-04-30T14:18:27.810Z,4.45
2023-04-30T14:20:54.520Z,4.55
2023-04-30T14:23:21.292Z,3.50
2023-04-30T14:25:48.273Z,4.05
2023-04-30T14:28:15.152Z,4.70
2023-04-30T14:30:41.821Z,6.25
2023-04-30T14:33:11.164Z,3.08
2023-04-30T14:35:38.142Z,4.15
2023-04-30T14:38:05.054Z,7.18
2023-04-30T14:40:31.956Z,4.10
2023-04-30T14:42:58.816Z,4.97
2023-04-30T14:45:28.142Z,4.88
2023-04-30T14:47:55.077Z,5.85
2023-04-30T14:50:22.424Z,5.40
2023-04-30T14:52:49.377Z,5.93
2023-04-30T14:55:16.261Z,6.05
2023-04-30T14:57:43.226Z,4.55
2023-04-30T15:00:11.075Z,3.35
2023-04-30T15:02:38.020Z,4.22
2023-04-30T15:05:05.260Z,5.50
2023-04-30T15:07:31.973Z,4.28
2023-04-30T15:09:58.892Z,4.43
2023-04-30T15:12:25.955Z,4.50
2023-04-30T15:14:52.714Z,4.55
2023-04-30T15:17:19.837Z,5.78
2023-04-30T15:19:46.821Z,4.88
2023-04-30T15:22:14.026Z,6.68
2023-04-30T15:24:41.360Z,4.80
2023-04-30T15:27:08.244Z,3.90
2023-04-30T15:29:35.561Z,4.38
2023-04-30T15:32:02.446Z,5.53
2023-04-30T15:34:29.558Z,4.30
2023-04-30T15:36:58.881Z,5.18
2023-04-30T15:39:26.994Z,5.38
2023-04-30T15:41:54.069Z,8.27
2023-04-30T15:44:20.901Z,3.75
2023-04-30T15:46:47.838Z,5.95
2023-04-30T15:49:15.932Z,3.78
2023-04-30T15:51:43.238Z,4.97
2023-04-30T15:54:11.371Z,5.65
2023-04-30T15:56:38.829Z,6.00
2023-04-30T15:59:06.336Z,4.03
2023-04-30T16:01:33.515Z,4.85
2023-04-30T16:04:01.258Z,6.38
2023-04-30T16:06:29.652Z,6.43
2023-04-30T16:08:56.562Z,3.97
2023-04-30T16:11:24.040Z,5.10
2023-04-30T16:13:54.541Z,5.38
2023-04-30T16:16:21.525Z,5.35
2023-04-30T16:18:48.496Z,7.65
2023-04-30T16:21:16.037Z,4.57
2023-04-30T16:23:43.041Z,4.13
2023-04-30T16:26:10.031Z,4.80
2023-04-30T16:28:36.858Z,7.30
2023-04-30T16:31:04.280Z,3.85
2023-04-30T16:33:31.052Z,5.32
2023-04-30T16:35:59.262Z,5.45
2023-04-30T16:38:26.045Z,5.35
2023-04-30T16:40:54.170Z,4.13
2023-04-30T16:43:20.924Z,6.45
2023-04-30T16:45:48.220Z,4.78
2023-04-30T16:48:17.720Z,7.65
2023-04-30T16:50:44.745Z,7.35
2023-04-30T16:53:11.850Z,5.60
2023-04-30T16:55:38.923Z,7.10
2023-04-30T16:58:05.863Z,5.32
2023-04-30T17:00:32.989Z,6.53
2023-04-30T17:03:00.032Z,6.60
2023-04-30T17:05:26.966Z,7.07
2023-04-30T17:07:54.148Z,6.30
2023-04-30T17:10:21.670Z,3.83
2023-04-30T17:12:48.666Z,6.32
2023-04-30T17:15:15.559Z,8.93
2023-04-30T17:17:42.387Z,7.13
2023-04-30T17:20:09.901Z,4.38
2023-04-30T17:22:38.290Z,4.90
2023-04-30T17:25:05.674Z,8.27
2023-04-30T17:27:32.437Z,6.25
2023-04-30T17:29:59.452Z,5.07
2023-04-30T17:32:26.586Z,6.43
2023-04-30T17:34:53.687Z,5.55
2023-04-30T17:37:20.509Z,6.10
2023-04-30T17:39:47.278Z,8.40
2023-04-30T17:42:14.160Z,5.38
2023-04-30T17:44:41.335Z,4.78
2023-04-30T17:47:08.181Z,5.60
2023-04-30T17:49:34.993Z,8.48
2023-04-30T17:52:01.791Z,5.47
2023-04-30T17:54:32.383Z,7.95
2023-04-30T17:56:59.569Z,8.18
2023-04-30T17:59:28.959Z,6.18
2023-04-30T18:01:56.521Z,7.30
2023-04-30T18:04:23.397Z,6.55
2023-04-30T18:06:50.337Z,7.10
2023-04-30T18:09:17.578Z,6.82
2023-04-30T18:11:44.703Z,5.57
2023-04-30T18:14:11.527Z,6.88
2023-04-30T18:16:38.496Z,5.30
2023-04-30T18:19:05.300Z,8.35
2023-04-30T18:21:32.326Z,5.68
2023-04-30T18:23:59.249Z,8.68
2023-04-30T18:26:26.017Z,5.22
2023-04-30T18:28:53.102Z,9.75
2023-04-30T18:31:19.896Z,5.28
2023-04-30T18:33:47.132Z,6.05
2023-04-30T18:36:14.066Z,6.53
2023-04-30T18:38:40.836Z,9.98
2023-04-30T18:41:08.179Z,4.75
2023-04-30T18:43:37.159Z,12.07
2023-04-30T18:46:05.818Z,7.47
2023-04-30T18:48:32.708Z,6.20
2023-04-30T18:50:59.528Z,8.63
2023-04-30T18:53:26.401Z,8.70
2023-04-30T18:55:53.213Z,7.38
2023-04-30T18:58:20.027Z,6.28
2023-04-30T19:00:46.870Z,8.50
2023-04-30T19:03:13.845Z,10.43
2023-04-30T19:05:42.580Z,8.27
2023-04-30T19:08:09.947Z,7.10
2023-04-30T19:10:37.160Z,8.18
2023-04-30T19:13:04.143Z,9.93
2023-04-30T19:15:30.992Z,9.43
2023-04-30T19:17:57.964Z,12.65
2023-04-30T19:20:24.891Z,15.13
2023-04-30T19:22:51.797Z,13.57
2023-04-30T19:25:18.726Z,11.27
2023-04-30T19:27:46.615Z,16.58
2023-04-30T19:30:14.333Z,17.85
2023-04-30T19:32:41.264Z,17.50
2023-04-30T19:35:08.530Z,15.68
2023-04-30T19:37:36.432Z,19.85
2023-04-30T19:40:06.851Z,13.52
2023-04-30T19:42:34.004Z,12.32
2023-04-30T19:45:00.842Z,11.98
2023-04-30T19:47:27.737Z,11.93
2023-04-30T19:49:55.270Z,12.05
2023-04-30T19:52:22.285Z,13.02
2023-04-30T19:54:50.155Z,10.88
2023-04-30T19:57:20.019Z,13.98
2023-04-30T19:59:47.376Z,10.57
2023-04-30T20:02:14.583Z,13.32
2023-04-30T20:04:41.436Z,12.63
2023-04-30T20:07:08.199Z,11.18
2023-04-30T20:09:35.083Z,14.15
2023-04-30T20:12:03.675Z,17.08
2023-04-30T20:14:31.064Z,11.25
2023-04-30T20:16:58.370Z,14.40
2023-04-30T20:19:26.002Z,11.93
2023-04-30T20:21:54.086Z,10.27
2023-04-30T20:24:22.085Z,13.85
2023-04-30T20:26:48.990Z,12.45
2023-04-30T20:29:17.166Z,15.95
2023-04-30T20:31:44.299Z,13.27
2023-04-30T20:34:11.031Z,13.13
2023-04-30T20:36:37.971Z,14.10
2023-04-30T20:39:04.720Z,13.80
2023-04-30T20:41:32.223Z,14.15
2023-04-30T20:44:00.571Z,13.25
2023-04-30T20:46:28.418Z,14.45
2023-04-30T20:49:01.055Z,14.50
2023-04-30T20:51:28.520Z,15.20
2023-04-30T20:53:55.387Z,18.17
2023-04-30T20:56:22.532Z,13.50
2023-04-30T20:58:49.386Z,11.10
2023-04-30T21:01:16.274Z,14.18
2023-04-30T21:03:43.048Z,11.07
2023-04-30T21:06:10.921Z,11.48
2023-04-30T21:08:37.706Z,13.30
2023-04-30T21:11:04.437Z,11.63
2023-04-30T21:13:31.162Z,12.90
2023-04-30T21:15:58.227Z,12.32
2023-04-30T21:18:27.921Z,17.17
2023-04-30T21:21:01.935Z,9.52
2023-04-30T21:23:29.882Z,10.93
2023-04-30T21:25:56.715Z,12.65
2023-04-30T21:28:23.463Z,21.67
2023-04-30T21:30:50.270Z,18.88
2023-04-30T21:33:17.099Z,15.60
2023-04-30T21:35:43.910Z,15.18
2023-04-30T21:38:13.771Z,12.32
2023-04-30T21:40:42.523Z,10.02
2023-04-30T21:43:09.936Z,13.23
2023-04-30T21:45:37.924Z,11.98
2023-04-30T21:48:05.864Z,9.52
2023-04-30T21:50:33.438Z,11.55
2023-04-30T21:53:00.199Z,13.00
2023-04-30T21:55:27.389Z,12.40
2023-04-30T21:57:54.292Z,9.75
2023-04-30T22:00:21.215Z,10.55
2023-04-30T22:02:49.248Z,11.85
2023-04-30T22:05:17.546Z,14.25
2023-04-30T22:07:44.555Z,11.15
2023-04-30T22:10:11.507Z,9.77
2023-04-30T22:12:38.569Z,10.80
2023-04-30T22:15:06.432Z,9.95
2023-04-30T22:17:33.926Z,11.40
2023-04-30T22:20:01.080Z,12.63
2023-04-30T22:22:27.861Z,9.32
2023-04-30T22:24:55.213Z,9.85
2023-04-30T22:27:23.039Z,10.90
2023-04-30T22:29:50.501Z,8.85
2023-04-30T22:32:19.492Z,10.30
2023-04-30T22:34:46.410Z,12.43
2023-04-30T22:37:13.255Z,10.48
2023-04-30T22:39:40.090Z,10.70
2023-04-30T22:42:08.458Z,12.23
2023-04-30T22:44:35.658Z,10.15
2023-04-30T22:47:02.901Z,8.98
2023-04-30T22:49:32.066Z,10.35
2023-04-30T22:52:00.144Z,9.10
2023-04-30T22:54:27.320Z,11.77
2023-04-30T22:56:54.186Z,13.73
2023-04-30T22:59:21.048Z,9.90
2023-04-30T23:01:48.123Z,9.73
2023-04-30T23:04:14.933Z,10.93
2023-04-30T23:06:42.907Z,13.95
2023-04-30T23:09:10.170Z,12.07
2023-04-30T23:11:37.052Z,11.05
2023-04-30T23:14:04.315Z,10.68
2023-04-30T23:16:31.209Z,11.80
2023-04-30T23:18:58.346Z,12.07
2023-04-30T23:21:25.056Z,11.52
2023-04-30T23:23:51.842Z,13.32
2023-04-30T23:26:18.583Z,12.45
2023-04-30T23:28:45.319Z,12.98
2023-04-30T23:31:12.162Z,14.40
2023-04-30T23:33:38.874Z,16.35
2023-04-30T23:36:06.150Z,15.15
2023-04-30T23:38:32.880Z,17.80
2023-04-30T23:40:59.892Z,14.63
2023-04-30T23:43:29.113Z,15.02
2023-04-30T23:45:57.460Z,16.38
2023-04-30T23:48:24.308Z,17.55
2023-04-30T23:51:05.292Z,18.98
2023-04-30T23:53:32.403Z,20.25
2023-04-30T23:55:59.673Z,20.50
2023-04-30T23:58:27.195Z,18.48
